sensor_id;sensor_type;location;lat;lon;timestamp;P1;durP1;ratioP1;P2;durP2;ratioP2
19830;SDS011;10076;52.008;4.708;2024-01-27T00:01:47;33.17;;;30.43;;
19830;SDS011;10076;52.008;4.708;2024-01-27T00:04:12;34.13;;;31.43;;
19830;SDS011;10076;52.008;4.708;2024-01-27T00:06:37;33.33;;;30.67;;
19830;SDS011;10076;52.008;4.708;2024-01-27T00:09:03;33.17;;;30.57;;
19830;SDS011;10076;52.008;4.708;2024-01-27T00:11:31;33.90;;;31.20;;
19830;SDS011;10076;52.008;4.708;2024-01-27T00:13:57;34.33;;;31.03;;
19830;SDS011;10076;52.008;4.708;2024-01-27T00:16:24;34.80;;;31.70;;
19830;SDS011;10076;52.008;4.708;2024-01-27T00:18:49;33.97;;;31.07;;
19830;SDS011;10076;52.008;4.708;2024-01-27T00:21:15;36.20;;;33.17;;
19830;SDS011;10076;52.008;4.708;2024-01-27T00:23:40;34.67;;;31.60;;
19830;SDS011;10076;52.008;4.708;2024-01-27T00:26:06;37.17;;;34.07;;
19830;SDS011;10076;52.008;4.708;2024-01-27T00:28:34;35.20;;;32.27;;
19830;SDS011;10076;52.008;4.708;2024-01-27T00:30:59;34.83;;;31.50;;
19830;SDS011;10076;52.008;4.708;2024-01-27T00:33:25;34.27;;;31.57;;
19830;SDS011;10076;52.008;4.708;2024-01-27T00:35:51;34.37;;;31.47;;
19830;SDS011;10076;52.008;4.708;2024-01-27T00:38:16;33.23;;;29.93;;
19830;SDS011;10076;52.008;4.708;2024-01-27T00:40:44;31.63;;;29.00;;
19830;SDS011;10076;52.008;4.708;2024-01-27T00:43:09;33.53;;;30.83;;
19830;SDS011;10076;52.008;4.708;2024-01-27T00:45:35;32.07;;;29.47;;
19830;SDS011;10076;52.008;4.708;2024-01-27T00:48:00;33.47;;;30.77;;
19830;SDS011;10076;52.008;4.708;2024-01-27T00:50:26;33.57;;;30.70;;
19830;SDS011;10076;52.008;4.708;2024-01-27T00:52:51;33.63;;;30.93;;
19830;SDS011;10076;52.008;4.708;2024-01-27T00:55:17;32.63;;;30.03;;
19830;SDS011;10076;52.008;4.708;2024-01-27T00:57:42;34.00;;;31.20;;
19830;SDS011;10076;52.008;4.708;2024-01-27T01:00:08;32.60;;;29.70;;
19830;SDS011;10076;52.008;4.708;2024-01-27T01:02:35;31.97;;;29.47;;
19830;SDS011;10076;52.008;4.708;2024-01-27T01:05:01;34.13;;;31.33;;
19830;SDS011;10076;52.008;4.708;2024-01-27T01:07:28;33.10;;;30.13;;
19830;SDS011;10076;52.008;4.708;2024-01-27T01:09:54;31.80;;;29.20;;
19830;SDS011;10076;52.008;4.708;2024-01-27T01:12:19;33.87;;;31.07;;
19830;SDS011;10076;52.008;4.708;2024-01-27T01:14:45;30.23;;;27.83;;
19830;SDS011;10076;52.008;4.708;2024-01-27T01:17:11;33.03;;;30.10;;
19830;SDS011;10076;52.008;4.708;2024-01-27T01:19:36;34.13;;;31.43;;
19830;SDS011;10076;52.008;4.708;2024-01-27T01:22:03;34.17;;;31.33;;
19830;SDS011;10076;52.008;4.708;2024-01-27T01:24:33;35.27;;;32.57;;
19830;SDS011;10076;52.008;4.708;2024-01-27T01:26:58;32.77;;;30.20;;
19830;SDS011;10076;52.008;4.708;2024-01-27T01:29:24;33.53;;;30.83;;
19830;SDS011;10076;52.008;4.708;2024-01-27T01:31:49;33.23;;;30.63;;
19830;SDS011;10076;52.008;4.708;2024-01-27T01:34:15;34.60;;;31.47;;
19830;SDS011;10076;52.008;4.708;2024-01-27T01:36:40;33.43;;;30.83;;
19830;SDS011;10076;52.008;4.708;2024-01-27T01:39:06;33.70;;;31.10;;
19830;SDS011;10076;52.008;4.708;2024-01-27T01:41:32;33.37;;;30.77;;
19830;SDS011;10076;52.008;4.708;2024-01-27T01:43:57;32.77;;;30.20;;
19830;SDS011;10076;52.008;4.708;2024-01-27T01:46:23;33.03;;;30.43;;
19830;SDS011;10076;52.008;4.708;2024-01-27T01:48:49;35.27;;;32.43;;
19830;SDS011;10076;52.008;4.708;2024-01-27T01:51:15;33.53;;;30.93;;
19830;SDS011;10076;52.008;4.708;2024-01-27T01:53:42;34.87;;;32.07;;
19830;SDS011;10076;52.008;4.708;2024-01-27T01:56:08;34.70;;;31.90;;
19830;SDS011;10076;52.008;4.708;2024-01-27T01:58:33;34.60;;;31.90;;
19830;SDS011;10076;52.008;4.708;2024-01-27T02:00:59;34.17;;;31.37;;
19830;SDS011;10076;52.008;4.708;2024-01-27T02:03:25;33.00;;;30.50;;
19830;SDS011;10076;52.008;4.708;2024-01-27T02:05:51;34.33;;;31.70;;
19830;SDS011;10076;52.008;4.708;2024-01-27T02:08:16;32.90;;;30.33;;
19830;SDS011;10076;52.008;4.708;2024-01-27T02:10:42;32.93;;;30.13;;
19830;SDS011;10076;52.008;4.708;2024-01-27T02:15:45;34.03;;;31.23;;
19830;SDS011;10076;52.008;4.708;2024-01-27T02:18:11;33.63;;;30.83;;
19830;SDS011;10076;52.008;4.708;2024-01-27T02:20:36;32.63;;;30.13;;
19830;SDS011;10076;52.008;4.708;2024-01-27T02:23:03;33.83;;;31.23;;
19830;SDS011;10076;52.008;4.708;2024-01-27T02:25:30;34.80;;;32.10;;
19830;SDS011;10076;52.008;4.708;2024-01-27T02:27:56;33.43;;;30.83;;
19830;SDS011;10076;52.008;4.708;2024-01-27T02:30:21;33.53;;;30.93;;
19830;SDS011;10076;52.008;4.708;2024-01-27T02:32:46;34.30;;;31.67;;
19830;SDS011;10076;52.008;4.708;2024-01-27T02:35:12;33.80;;;31.20;;
19830;SDS011;10076;52.008;4.708;2024-01-27T02:37:39;34.57;;;31.90;;
19830;SDS011;10076;52.008;4.708;2024-01-27T02:40:05;31.83;;;29.33;;
19830;SDS011;10076;52.008;4.708;2024-01-27T02:42:31;33.33;;;30.63;;
19830;SDS011;10076;52.008;4.708;2024-01-27T02:44:56;33.83;;;31.23;;
19830;SDS011;10076;52.008;4.708;2024-01-27T02:47:22;34.87;;;32.17;;
19830;SDS011;10076;52.008;4.708;2024-01-27T02:49:47;34.20;;;31.53;;
19830;SDS011;10076;52.008;4.708;2024-01-27T02:52:12;35.63;;;32.93;;
19830;SDS011;10076;52.008;4.708;2024-01-27T02:54:39;34.47;;;31.77;;
19830;SDS011;10076;52.008;4.708;2024-01-27T02:57:04;34.53;;;31.87;;
19830;SDS011;10076;52.008;4.708;2024-01-27T02:59:29;33.60;;;31.00;;
19830;SDS011;10076;52.008;4.708;2024-01-27T03:01:55;32.53;;;29.97;;
19830;SDS011;10076;52.008;4.708;2024-01-27T03:04:20;34.93;;;32.23;;
19830;SDS011;10076;52.008;4.708;2024-01-27T03:06:46;34.97;;;32.00;;
19830;SDS011;10076;52.008;4.708;2024-01-27T03:09:12;34.13;;;31.53;;
19830;SDS011;10076;52.008;4.708;2024-01-27T03:11:37;34.43;;;31.73;;
19830;SDS011;10076;52.008;4.708;2024-01-27T03:14:03;32.57;;;30.07;;
19830;SDS011;10076;52.008;4.708;2024-01-27T03:16:28;31.27;;;28.77;;
19830;SDS011;10076;52.008;4.708;2024-01-27T03:18:54;32.27;;;29.77;;
19830;SDS011;10076;52.008;4.708;2024-01-27T03:21:19;32.50;;;30.00;;
19830;SDS011;10076;52.008;4.708;2024-01-27T03:23:44;33.60;;;31.00;;
19830;SDS011;10076;52.008;4.708;2024-01-27T03:26:10;35.37;;;32.57;;
19830;SDS011;10076;52.008;4.708;2024-01-27T03:28:35;34.43;;;31.83;;
19830;SDS011;10076;52.008;4.708;2024-01-27T03:31:00;34.93;;;32.13;;
19830;SDS011;10076;52.008;4.708;2024-01-27T03:33:26;35.30;;;32.60;;
19830;SDS011;10076;52.008;4.708;2024-01-27T03:35:54;33.10;;;30.27;;
19830;SDS011;10076;52.008;4.708;2024-01-27T03:38:19;35.03;;;32.37;;
19830;SDS011;10076;52.008;4.708;2024-01-27T03:40:45;35.60;;;32.80;;
19830;SDS011;10076;52.008;4.708;2024-01-27T03:43:10;33.53;;;30.93;;
19830;SDS011;10076;52.008;4.708;2024-01-27T03:45:35;36.13;;;32.83;;
19830;SDS011;10076;52.008;4.708;2024-01-27T03:48:00;35.80;;;33.00;;
19830;SDS011;10076;52.008;4.708;2024-01-27T03:50:26;34.30;;;31.60;;
19830;SDS011;10076;52.008;4.708;2024-01-27T03:52:51;37.43;;;34.33;;
19830;SDS011;10076;52.008;4.708;2024-01-27T03:55:16;35.63;;;32.90;;
19830;SDS011;10076;52.008;4.708;2024-01-27T03:57:42;36.27;;;33.47;;
19830;SDS011;10076;52.008;4.708;2024-01-27T04:00:07;35.20;;;32.40;;
19830;SDS011;10076;52.008;4.708;2024-01-27T04:02:33;35.23;;;32.50;;
19830;SDS011;10076;52.008;4.708;2024-01-27T04:04:58;35.20;;;32.33;;
19830;SDS011;10076;52.008;4.708;2024-01-27T04:07:24;34.07;;;31.27;;
19830;SDS011;10076;52.008;4.708;2024-01-27T04:09:49;34.60;;;31.90;;
19830;SDS011;10076;52.008;4.708;2024-01-27T04:12:14;35.60;;;32.80;;
19830;SDS011;10076;52.008;4.708;2024-01-27T04:14:40;32.63;;;30.03;;
19830;SDS011;10076;52.008;4.708;2024-01-27T04:17:05;33.10;;;30.50;;
19830;SDS011;10076;52.008;4.708;2024-01-27T04:19:31;33.47;;;30.73;;
19830;SDS011;10076;52.008;4.708;2024-01-27T04:21:56;32.13;;;29.53;;
19830;SDS011;10076;52.008;4.708;2024-01-27T04:24:21;32.50;;;30.00;;
19830;SDS011;10076;52.008;4.708;2024-01-27T04:26:47;34.77;;;32.03;;
19830;SDS011;10076;52.008;4.708;2024-01-27T04:29:12;35.33;;;32.37;;
19830;SDS011;10076;52.008;4.708;2024-01-27T04:31:40;37.10;;;34.00;;
19830;SDS011;10076;52.008;4.708;2024-01-27T04:34:06;34.57;;;31.93;;
19830;SDS011;10076;52.008;4.708;2024-01-27T04:36:31;33.90;;;31.20;;
19830;SDS011;10076;52.008;4.708;2024-01-27T04:38:56;35.00;;;32.07;;
19830;SDS011;10076;52.008;4.708;2024-01-27T04:41:22;32.23;;;29.53;;
19830;SDS011;10076;52.008;4.708;2024-01-27T04:43:47;33.53;;;30.93;;
19830;SDS011;10076;52.008;4.708;2024-01-27T04:46:13;33.43;;;30.60;;
19830;SDS011;10076;52.008;4.708;2024-01-27T04:48:38;32.17;;;29.40;;
19830;SDS011;10076;52.008;4.708;2024-01-27T04:51:04;35.10;;;32.13;;
19830;SDS011;10076;52.008;4.708;2024-01-27T04:53:29;34.03;;;31.27;;
19830;SDS011;10076;52.008;4.708;2024-01-27T04:55:54;34.20;;;31.40;;
19830;SDS011;10076;52.008;4.708;2024-01-27T04:58:20;33.37;;;30.77;;
19830;SDS011;10076;52.008;4.708;2024-01-27T05:00:45;33.50;;;30.27;;
19830;SDS011;10076;52.008;4.708;2024-01-27T05:03:11;35.57;;;32.40;;
19830;SDS011;10076;52.008;4.708;2024-01-27T05:05:42;34.13;;;31.17;;
19830;SDS011;10076;52.008;4.708;2024-01-27T05:08:08;33.73;;;31.03;;
19830;SDS011;10076;52.008;4.708;2024-01-27T05:10:34;33.57;;;30.20;;
19830;SDS011;10076;52.008;4.708;2024-01-27T05:13:00;32.73;;;30.03;;
19830;SDS011;10076;52.008;4.708;2024-01-27T05:15:25;33.27;;;30.47;;
19830;SDS011;10076;52.008;4.708;2024-01-27T05:17:51;33.63;;;30.97;;
19830;SDS011;10076;52.008;4.708;2024-01-27T05:20:17;35.40;;;32.30;;
19830;SDS011;10076;52.008;4.708;2024-01-27T05:22:42;33.67;;;30.97;;
19830;SDS011;10076;52.008;4.708;2024-01-27T05:25:08;32.27;;;29.27;;
19830;SDS011;10076;52.008;4.708;2024-01-27T05:27:34;29.20;;;26.70;;
19830;SDS011;10076;52.008;4.708;2024-01-27T05:30:02;30.07;;;27.47;;
19830;SDS011;10076;52.008;4.708;2024-01-27T05:32:27;29.87;;;27.37;;
19830;SDS011;10076;52.008;4.708;2024-01-27T05:34:53;30.50;;;27.93;;
19830;SDS011;10076;52.008;4.708;2024-01-27T05:37:18;29.83;;;27.33;;
19830;SDS011;10076;52.008;4.708;2024-01-27T05:39:43;32.23;;;29.63;;
19830;SDS011;10076;52.008;4.708;2024-01-27T05:42:09;31.73;;;28.90;;
19830;SDS011;10076;52.008;4.708;2024-01-27T05:44:34;32.67;;;29.73;;
19830;SDS011;10076;52.008;4.708;2024-01-27T05:46:59;32.73;;;30.13;;
19830;SDS011;10076;52.008;4.708;2024-01-27T05:49:25;32.23;;;29.63;;
19830;SDS011;10076;52.008;4.708;2024-01-27T05:51:50;32.60;;;30.00;;
19830;SDS011;10076;52.008;4.708;2024-01-27T05:54:15;31.73;;;29.03;;
19830;SDS011;10076;52.008;4.708;2024-01-27T05:56:41;34.10;;;31.37;;
19830;SDS011;10076;52.008;4.708;2024-01-27T05:59:07;34.53;;;31.77;;
19830;SDS011;10076;52.008;4.708;2024-01-27T06:01:32;32.07;;;29.47;;
19830;SDS011;10076;52.008;4.708;2024-01-27T06:03:58;32.13;;;29.43;;
19830;SDS011;10076;52.008;4.708;2024-01-27T06:06:23;33.73;;;31.03;;
19830;SDS011;10076;52.008;4.708;2024-01-27T06:08:49;33.17;;;30.37;;
19830;SDS011;10076;52.008;4.708;2024-01-27T06:11:14;32.53;;;29.93;;
19830;SDS011;10076;52.008;4.708;2024-01-27T06:13:47;31.03;;;28.53;;
19830;SDS011;10076;52.008;4.708;2024-01-27T06:16:13;34.10;;;31.30;;
19830;SDS011;10076;52.008;4.708;2024-01-27T06:18:38;33.80;;;30.70;;
19830;SDS011;10076;52.008;4.708;2024-01-27T06:21:05;32.27;;;29.60;;
19830;SDS011;10076;52.008;4.708;2024-01-27T06:23:30;33.53;;;30.87;;
19830;SDS011;10076;52.008;4.708;2024-01-27T06:25:56;38.17;;;31.27;;
19830;SDS011;10076;52.008;4.708;2024-01-27T06:28:24;32.40;;;29.80;;
19830;SDS011;10076;52.008;4.708;2024-01-27T06:30:49;30.77;;;28.27;;
19830;SDS011;10076;52.008;4.708;2024-01-27T06:33:15;32.07;;;29.33;;
19830;SDS011;10076;52.008;4.708;2024-01-27T06:35:40;32.63;;;29.83;;
19830;SDS011;10076;52.008;4.708;2024-01-27T06:38:05;33.20;;;30.40;;
19830;SDS011;10076;52.008;4.708;2024-01-27T06:40:31;31.63;;;29.03;;
19830;SDS011;10076;52.008;4.708;2024-01-27T06:42:56;31.20;;;28.63;;
19830;SDS011;10076;52.008;4.708;2024-01-27T06:45:21;32.40;;;29.63;;
19830;SDS011;10076;52.008;4.708;2024-01-27T06:47:47;31.23;;;28.70;;
19830;SDS011;10076;52.008;4.708;2024-01-27T06:50:12;31.83;;;29.23;;
19830;SDS011;10076;52.008;4.708;2024-01-27T06:52:38;30.23;;;27.73;;
19830;SDS011;10076;52.008;4.708;2024-01-27T06:55:04;30.03;;;27.60;;
19830;SDS011;10076;52.008;4.708;2024-01-27T06:57:31;28.47;;;26.07;;
19830;SDS011;10076;52.008;4.708;2024-01-27T06:59:57;27.70;;;25.30;;
19830;SDS011;10076;52.008;4.708;2024-01-27T07:02:23;26.87;;;24.27;;
19830;SDS011;10076;52.008;4.708;2024-01-27T07:04:49;29.60;;;27.00;;
19830;SDS011;10076;52.008;4.708;2024-01-27T07:07:14;28.70;;;26.03;;
19830;SDS011;10076;52.008;4.708;2024-01-27T07:09:39;33.00;;;26.77;;
19830;SDS011;10076;52.008;4.708;2024-01-27T07:12:05;27.30;;;24.80;;
19830;SDS011;10076;52.008;4.708;2024-01-27T07:14:30;29.57;;;27.03;;
19830;SDS011;10076;52.008;4.708;2024-01-27T07:16:56;29.57;;;27.07;;
19830;SDS011;10076;52.008;4.708;2024-01-27T07:19:21;32.77;;;29.77;;
19830;SDS011;10076;52.008;4.708;2024-01-27T07:21:46;32.57;;;29.77;;
19830;SDS011;10076;52.008;4.708;2024-01-27T07:24:12;31.80;;;29.17;;
19830;SDS011;10076;52.008;4.708;2024-01-27T07:26:37;30.97;;;27.87;;
19830;SDS011;10076;52.008;4.708;2024-01-27T07:29:03;29.17;;;26.47;;
19830;SDS011;10076;52.008;4.708;2024-01-27T07:31:28;33.30;;;27.50;;
19830;SDS011;10076;52.008;4.708;2024-01-27T07:33:53;31.67;;;28.97;;
19830;SDS011;10076;52.008;4.708;2024-01-27T07:36:19;29.33;;;26.70;;
19830;SDS011;10076;52.008;4.708;2024-01-27T07:38:44;30.57;;;27.80;;
19830;SDS011;10076;52.008;4.708;2024-01-27T07:41:09;28.97;;;26.47;;
19830;SDS011;10076;52.008;4.708;2024-01-27T07:43:35;29.63;;;26.83;;
19830;SDS011;10076;52.008;4.708;2024-01-27T07:46:00;29.67;;;27.00;;
19830;SDS011;10076;52.008;4.708;2024-01-27T07:48:25;29.27;;;26.67;;
19830;SDS011;10076;52.008;4.708;2024-01-27T07:50:50;28.60;;;25.67;;
19830;SDS011;10076;52.008;4.708;2024-01-27T07:53:16;28.57;;;26.07;;
19830;SDS011;10076;52.008;4.708;2024-01-27T07:55:42;29.53;;;26.83;;
19830;SDS011;10076;52.008;4.708;2024-01-27T07:58:07;29.43;;;26.70;;
19830;SDS011;10076;52.008;4.708;2024-01-27T08:00:32;27.97;;;25.13;;
19830;SDS011;10076;52.008;4.708;2024-01-27T08:02:58;28.30;;;25.80;;
19830;SDS011;10076;52.008;4.708;2024-01-27T08:05:23;29.27;;;26.67;;
19830;SDS011;10076;52.008;4.708;2024-01-27T08:07:48;29.57;;;26.83;;
19830;SDS011;10076;52.008;4.708;2024-01-27T08:10:14;29.07;;;26.40;;
19830;SDS011;10076;52.008;4.708;2024-01-27T08:12:40;29.20;;;26.47;;
19830;SDS011;10076;52.008;4.708;2024-01-27T08:15:06;31.03;;;28.10;;
19830;SDS011;10076;52.008;4.708;2024-01-27T08:17:32;30.20;;;27.47;;
19830;SDS011;10076;52.008;4.708;2024-01-27T08:19:57;31.40;;;28.30;;
19830;SDS011;10076;52.008;4.708;2024-01-27T08:22:24;31.73;;;28.83;;
19830;SDS011;10076;52.008;4.708;2024-01-27T08:24:49;31.70;;;28.90;;
19830;SDS011;10076;52.008;4.708;2024-01-27T08:27:14;32.17;;;29.33;;
19830;SDS011;10076;52.008;4.708;2024-01-27T08:29:40;31.87;;;29.07;;
19830;SDS011;10076;52.008;4.708;2024-01-27T08:32:05;28.63;;;26.03;;
19830;SDS011;10076;52.008;4.708;2024-01-27T08:34:31;29.63;;;27.07;;
19830;SDS011;10076;52.008;4.708;2024-01-27T08:37:00;29.30;;;26.77;;
19830;SDS011;10076;52.008;4.708;2024-01-27T08:39:27;29.13;;;26.50;;
19830;SDS011;10076;52.008;4.708;2024-01-27T08:41:52;29.20;;;26.70;;
19830;SDS011;10076;52.008;4.708;2024-01-27T08:44:17;26.93;;;24.33;;
19830;SDS011;10076;52.008;4.708;2024-01-27T08:46:43;28.43;;;25.83;;
19830;SDS011;10076;52.008;4.708;2024-01-27T08:49:10;29.50;;;26.77;;
19830;SDS011;10076;52.008;4.708;2024-01-27T08:51:35;28.13;;;25.57;;
19830;SDS011;10076;52.008;4.708;2024-01-27T08:54:01;28.47;;;25.97;;
19830;SDS011;10076;52.008;4.708;2024-01-27T08:56:26;28.10;;;25.43;;
19830;SDS011;10076;52.008;4.708;2024-01-27T08:58:51;28.40;;;25.50;;
19830;SDS011;10076;52.008;4.708;2024-01-27T09:01:17;27.60;;;25.00;;
19830;SDS011;10076;52.008;4.708;2024-01-27T09:03:43;29.23;;;26.43;;
19830;SDS011;10076;52.008;4.708;2024-01-27T09:06:09;28.10;;;25.47;;
19830;SDS011;10076;52.008;4.708;2024-01-27T09:08:34;27.60;;;25.10;;
19830;SDS011;10076;52.008;4.708;2024-01-27T09:11:00;28.97;;;26.03;;
19830;SDS011;10076;52.008;4.708;2024-01-27T09:13:26;28.10;;;25.50;;
19830;SDS011;10076;52.008;4.708;2024-01-27T09:15:51;27.47;;;25.00;;
19830;SDS011;10076;52.008;4.708;2024-01-27T09:18:17;28.57;;;25.90;;
19830;SDS011;10076;52.008;4.708;2024-01-27T09:20:42;28.00;;;25.50;;
19830;SDS011;10076;52.008;4.708;2024-01-27T09:23:07;30.33;;;27.53;;
19830;SDS011;10076;52.008;4.708;2024-01-27T09:25:33;29.20;;;26.60;;
19830;SDS011;10076;52.008;4.708;2024-01-27T09:27:58;29.13;;;26.43;;
19830;SDS011;10076;52.008;4.708;2024-01-27T09:30:26;31.03;;;28.23;;
19830;SDS011;10076;52.008;4.708;2024-01-27T09:32:51;30.27;;;27.23;;
19830;SDS011;10076;52.008;4.708;2024-01-27T09:35:16;29.87;;;27.03;;
19830;SDS011;10076;52.008;4.708;2024-01-27T09:37:42;31.20;;;28.40;;
19830;SDS011;10076;52.008;4.708;2024-01-27T09:40:08;30.77;;;28.03;;
19830;SDS011;10076;52.008;4.708;2024-01-27T09:42:34;31.47;;;28.57;;
19830;SDS011;10076;52.008;4.708;2024-01-27T09:45:00;31.00;;;28.30;;
19830;SDS011;10076;52.008;4.708;2024-01-27T09:47:27;31.97;;;29.17;;
19830;SDS011;10076;52.008;4.708;2024-01-27T09:49:53;33.07;;;30.03;;
19830;SDS011;10076;52.008;4.708;2024-01-27T09:52:18;33.50;;;30.57;;
19830;SDS011;10076;52.008;4.708;2024-01-27T09:54:43;35.27;;;30.53;;
19830;SDS011;10076;52.008;4.708;2024-01-27T09:57:09;34.70;;;31.67;;
19830;SDS011;10076;52.008;4.708;2024-01-27T09:59:36;33.97;;;31.17;;
19830;SDS011;10076;52.008;4.708;2024-01-27T10:02:09;32.40;;;29.50;;
19830;SDS011;10076;52.008;4.708;2024-01-27T10:04:36;33.30;;;30.57;;
19830;SDS011;10076;52.008;4.708;2024-01-27T10:07:03;32.87;;;30.17;;
19830;SDS011;10076;52.008;4.708;2024-01-27T10:09:29;33.30;;;30.40;;
19830;SDS011;10076;52.008;4.708;2024-01-27T10:11:54;33.20;;;30.50;;
19830;SDS011;10076;52.008;4.708;2024-01-27T10:14:22;33.77;;;30.77;;
19830;SDS011;10076;52.008;4.708;2024-01-27T10:16:47;33.23;;;30.27;;
19830;SDS011;10076;52.008;4.708;2024-01-27T10:19:17;35.13;;;32.03;;
19830;SDS011;10076;52.008;4.708;2024-01-27T10:21:44;34.57;;;31.67;;
19830;SDS011;10076;52.008;4.708;2024-01-27T10:24:10;36.50;;;33.40;;
19830;SDS011;10076;52.008;4.708;2024-01-27T10:26:35;33.63;;;30.90;;
19830;SDS011;10076;52.008;4.708;2024-01-27T10:29:01;35.93;;;33.13;;
19830;SDS011;10076;52.008;4.708;2024-01-27T10:31:27;34.67;;;31.97;;
19830;SDS011;10076;52.008;4.708;2024-01-27T10:33:54;35.07;;;32.43;;
19830;SDS011;10076;52.008;4.708;2024-01-27T10:36:21;36.90;;;34.00;;
19830;SDS011;10076;52.008;4.708;2024-01-27T10:38:46;33.03;;;30.37;;
19830;SDS011;10076;52.008;4.708;2024-01-27T10:41:12;33.73;;;30.97;;
19830;SDS011;10076;52.008;4.708;2024-01-27T10:43:46;33.37;;;30.97;;
19830;SDS011;10076;52.008;4.708;2024-01-27T10:46:18;32.13;;;29.73;;
19830;SDS011;10076;52.008;4.708;2024-01-27T10:48:49;29.70;;;27.60;;
19830;SDS011;10076;52.008;4.708;2024-01-27T10:51:24;28.73;;;26.00;;
19830;SDS011;10076;52.008;4.708;2024-01-27T10:54:03;26.42;;;24.38;;
19830;SDS011;10076;52.008;4.708;2024-01-27T10:56:29;25.55;;;23.55;;
19830;SDS011;10076;52.008;4.708;2024-01-27T10:58:57;22.95;;;21.20;;
19830;SDS011;10076;52.008;4.708;2024-01-27T11:01:23;23.30;;;20.88;;
19830;SDS011;10076;52.008;4.708;2024-01-27T11:03:49;21.70;;;20.05;;
19830;SDS011;10076;52.008;4.708;2024-01-27T11:06:19;21.15;;;19.85;;
19830;SDS011;10076;52.008;4.708;2024-01-27T11:08:49;20.50;;;19.20;;
19830;SDS011;10076;52.008;4.708;2024-01-27T11:11:15;21.33;;;19.38;;
19830;SDS011;10076;52.008;4.708;2024-01-27T11:13:42;19.40;;;18.15;;
19830;SDS011;10076;52.008;4.708;2024-01-27T11:16:14;19.08;;;17.88;;
19830;SDS011;10076;52.008;4.708;2024-01-27T11:18:42;19.08;;;17.73;;
19830;SDS011;10076;52.008;4.708;2024-01-27T11:21:07;18.48;;;17.08;;
19830;SDS011;10076;52.008;4.708;2024-01-27T11:23:38;18.98;;;17.77;;
19830;SDS011;10076;52.008;4.708;2024-01-27T11:26:05;18.13;;;17.00;;
19830;SDS011;10076;52.008;4.708;2024-01-27T11:28:31;17.83;;;16.73;;
19830;SDS011;10076;52.008;4.708;2024-01-27T11:30:56;18.13;;;16.80;;
19830;SDS011;10076;52.008;4.708;2024-01-27T11:33:25;18.58;;;17.13;;
19830;SDS011;10076;52.008;4.708;2024-01-27T11:36:06;19.80;;;17.85;;
19830;SDS011;10076;52.008;4.708;2024-01-27T11:38:32;17.35;;;15.90;;
19830;SDS011;10076;52.008;4.708;2024-01-27T11:40:59;16.83;;;15.50;;
19830;SDS011;10076;52.008;4.708;2024-01-27T11:43:25;17.02;;;16.05;;
19830;SDS011;10076;52.008;4.708;2024-01-27T11:46:00;18.17;;;17.00;;
19830;SDS011;10076;52.008;4.708;2024-01-27T11:48:26;17.25;;;15.95;;
19830;SDS011;10076;52.008;4.708;2024-01-27T11:51:05;19.63;;;18.00;;
19830;SDS011;10076;52.008;4.708;2024-01-27T11:53:37;16.83;;;15.73;;
19830;SDS011;10076;52.008;4.708;2024-01-27T11:56:03;17.13;;;16.00;;
19830;SDS011;10076;52.008;4.708;2024-01-27T11:58:29;18.05;;;16.85;;
19830;SDS011;10076;52.008;4.708;2024-01-27T12:00:55;17.83;;;16.23;;
19830;SDS011;10076;52.008;4.708;2024-01-27T12:03:21;16.75;;;15.68;;
19830;SDS011;10076;52.008;4.708;2024-01-27T12:05:49;16.55;;;15.45;;
19830;SDS011;10076;52.008;4.708;2024-01-27T12:08:16;16.88;;;15.50;;
19830;SDS011;10076;52.008;4.708;2024-01-27T12:10:50;16.73;;;15.57;;
19830;SDS011;10076;52.008;4.708;2024-01-27T12:13:16;18.90;;;16.90;;
19830;SDS011;10076;52.008;4.708;2024-01-27T12:15:42;17.00;;;15.88;;
19830;SDS011;10076;52.008;4.708;2024-01-27T12:18:08;16.67;;;15.55;;
19830;SDS011;10076;52.008;4.708;2024-01-27T12:20:34;17.33;;;16.15;;
19830;SDS011;10076;52.008;4.708;2024-01-27T12:23:06;17.70;;;15.70;;
19830;SDS011;10076;52.008;4.708;2024-01-27T12:25:31;16.50;;;15.40;;
19830;SDS011;10076;52.008;4.708;2024-01-27T12:28:03;17.45;;;15.88;;
19830;SDS011;10076;52.008;4.708;2024-01-27T12:30:36;17.80;;;16.45;;
19830;SDS011;10076;52.008;4.708;2024-01-27T12:33:01;17.98;;;16.58;;
19830;SDS011;10076;52.008;4.708;2024-01-27T12:35:34;17.23;;;15.82;;
19830;SDS011;10076;52.008;4.708;2024-01-27T12:38:00;16.90;;;15.88;;
19830;SDS011;10076;52.008;4.708;2024-01-27T12:40:25;17.90;;;16.50;;
19830;SDS011;10076;52.008;4.708;2024-01-27T12:42:51;17.67;;;16.38;;
19830;SDS011;10076;52.008;4.708;2024-01-27T12:45:16;17.30;;;15.90;;
19830;SDS011;10076;52.008;4.708;2024-01-27T12:47:42;17.33;;;15.88;;
19830;SDS011;10076;52.008;4.708;2024-01-27T12:50:08;17.27;;;16.08;;
19830;SDS011;10076;52.008;4.708;2024-01-27T12:52:34;17.27;;;16.05;;
19830;SDS011;10076;52.008;4.708;2024-01-27T12:54:59;17.30;;;16.10;;
19830;SDS011;10076;52.008;4.708;2024-01-27T12:57:24;17.35;;;16.25;;
19830;SDS011;10076;52.008;4.708;2024-01-27T12:59:50;18.10;;;16.33;;
19830;SDS011;10076;52.008;4.708;2024-01-27T13:02:15;17.05;;;15.85;;
19830;SDS011;10076;52.008;4.708;2024-01-27T13:04:41;17.35;;;16.10;;
19830;SDS011;10076;52.008;4.708;2024-01-27T13:07:06;16.83;;;15.73;;
19830;SDS011;10076;52.008;4.708;2024-01-27T13:09:32;17.00;;;15.60;;
19830;SDS011;10076;52.008;4.708;2024-01-27T13:11:57;18.35;;;16.92;;
19830;SDS011;10076;52.008;4.708;2024-01-27T13:14:23;17.23;;;16.02;;
19830;SDS011;10076;52.008;4.708;2024-01-27T13:16:48;17.80;;;16.50;;
19830;SDS011;10076;52.008;4.708;2024-01-27T13:19:13;17.25;;;16.15;;
19830;SDS011;10076;52.008;4.708;2024-01-27T13:21:39;19.30;;;17.55;;
19830;SDS011;10076;52.008;4.708;2024-01-27T13:24:07;18.23;;;16.70;;
19830;SDS011;10076;52.008;4.708;2024-01-27T13:26:34;22.58;;;16.20;;
19830;SDS011;10076;52.008;4.708;2024-01-27T13:29:02;17.13;;;15.82;;
19830;SDS011;10076;52.008;4.708;2024-01-27T13:31:29;17.45;;;15.80;;
19830;SDS011;10076;52.008;4.708;2024-01-27T13:33:54;18.05;;;16.40;;
19830;SDS011;10076;52.008;4.708;2024-01-27T13:36:20;17.30;;;15.90;;
19830;SDS011;10076;52.008;4.708;2024-01-27T13:38:46;17.33;;;16.02;;
19830;SDS011;10076;52.008;4.708;2024-01-27T13:41:11;17.27;;;16.17;;
19830;SDS011;10076;52.008;4.708;2024-01-27T13:43:36;17.70;;;16.38;;
19830;SDS011;10076;52.008;4.708;2024-01-27T13:46:04;17.90;;;16.50;;
19830;SDS011;10076;52.008;4.708;2024-01-27T13:48:29;16.63;;;15.63;;
19830;SDS011;10076;52.008;4.708;2024-01-27T13:50:55;17.35;;;15.90;;
19830;SDS011;10076;52.008;4.708;2024-01-27T13:53:21;18.65;;;16.98;;
19830;SDS011;10076;52.008;4.708;2024-01-27T13:55:47;17.98;;;16.58;;
19830;SDS011;10076;52.008;4.708;2024-01-27T13:58:12;17.13;;;15.93;;
19830;SDS011;10076;52.008;4.708;2024-01-27T14:00:38;17.10;;;15.88;;
19830;SDS011;10076;52.008;4.708;2024-01-27T14:03:03;18.65;;;17.45;;
19830;SDS011;10076;52.008;4.708;2024-01-27T14:05:28;17.08;;;15.73;;
19830;SDS011;10076;52.008;4.708;2024-01-27T14:07:54;17.35;;;15.80;;
19830;SDS011;10076;52.008;4.708;2024-01-27T14:10:20;17.55;;;16.23;;
19830;SDS011;10076;52.008;4.708;2024-01-27T14:12:45;17.02;;;15.93;;
19830;SDS011;10076;52.008;4.708;2024-01-27T14:15:11;17.75;;;16.48;;
19830;SDS011;10076;52.008;4.708;2024-01-27T14:17:36;17.30;;;16.35;;